createdAt,value
2023-02-27T00:00:48.332Z,74.01
2023-02-27T00:01:48.370Z,73.90
2023-02-27T00:02:48.559Z,73.17
2023-02-27T00:03:48.480Z,73.38
2023-02-27T00:04:48.431Z,73.17
2023-02-27T00:05:48.462Z,72.96
2023-02-27T00:06:48.497Z,73.07
2023-02-27T00:07:48.521Z,73.07
2023-02-27T00:08:48.582Z,73.17
2023-02-27T00:09:48.639Z,73.07
2023-02-27T00:10:48.686Z,72.96
2023-02-27T00:11:48.713Z,73.00
2023-02-27T00:12:48.736Z,73.31
2023-02-27T00:13:48.760Z,73.31
2023-02-27T00:14:48.826Z,73.21
2023-02-27T00:15:48.901Z,73.41
2023-02-27T00:16:48.841Z,73.21
2023-02-27T00:17:48.881Z,73.21
2023-02-27T00:18:48.912Z,73.41
2023-02-27T00:19:48.954Z,72.72
2023-02-27T00:20:49.016Z,73.13
2023-02-27T00:21:49.061Z,73.66
2023-02-27T00:22:49.123Z,74.07
2023-02-27T00:23:49.143Z,74.28
2023-02-27T00:24:49.182Z,73.86
2023-02-27T00:25:49.213Z,73.34
2023-02-27T00:26:49.264Z,73.97
2023-02-27T00:27:49.310Z,74.21
2023-02-27T00:28:49.341Z,74.80
2023-02-27T00:29:49.381Z,74.91
2023-02-27T00:30:49.471Z,75.01
2023-02-27T00:31:49.503Z,74.70
2023-02-27T00:32:49.452Z,74.70
2023-02-27T00:33:49.481Z,74.07
2023-02-27T00:34:49.502Z,74.07
2023-02-27T00:35:49.556Z,73.58
2023-02-27T00:36:49.596Z,74.01
2023-02-27T00:37:49.638Z,74.32
2023-02-27T00:38:49.682Z,74.52
2023-02-27T00:39:49.719Z,74.14
2023-02-27T00:40:49.752Z,74.24
2023-02-27T00:41:49.803Z,74.45
2023-02-27T00:42:49.830Z,75.18
2023-02-27T00:43:49.867Z,75.26
2023-02-27T00:44:49.924Z,74.87
2023-02-27T00:45:49.951Z,74.87
2023-02-27T00:46:50.014Z,75.29
2023-02-27T00:47:49.993Z,75.92
2023-02-27T00:48:50.022Z,75.39
2023-02-27T00:49:50.075Z,75.71
2023-02-27T00:50:50.113Z,75.50
2023-02-27T00:51:50.149Z,75.92
2023-02-27T00:52:50.171Z,76.09
2023-02-27T00:53:50.221Z,76.23
2023-02-27T00:54:50.272Z,76.72
2023-02-27T00:55:50.305Z,76.61
2023-02-27T00:56:50.350Z,76.30
2023-02-27T00:57:50.429Z,75.98
2023-02-27T00:58:50.401Z,75.57
2023-02-27T00:59:50.466Z,75.57
2023-02-27T01:00:50.521Z,74.94
2023-02-27T01:01:50.512Z,74.73
2023-02-27T01:02:50.577Z,74.63
2023-02-27T01:03:50.574Z,74.84
2023-02-27T01:04:50.616Z,74.84
2023-02-27T01:05:50.656Z,75.67
2023-02-27T01:06:50.693Z,76.92
2023-02-27T01:07:50.740Z,77.00
2023-02-27T01:08:50.778Z,75.85
2023-02-27T01:09:50.820Z,74.80
2023-02-27T01:10:50.859Z,74.60
2023-02-27T01:11:50.897Z,74.28
2023-02-27T01:12:50.945Z,74.18
2023-02-27T01:13:50.968Z,73.79
2023-02-27T01:14:50.998Z,74.21
2023-02-27T01:15:50.988Z,74.32
2023-02-27T01:16:51.028Z,74.94
2023-02-27T01:17:51.068Z,75.36
2023-02-27T01:18:51.072Z,74.94
2023-02-27T01:19:51.060Z,74.84
2023-02-27T01:20:51.062Z,73.30
2023-02-27T01:21:51.065Z,74.59
2023-02-27T01:22:51.099Z,75.39
2023-02-27T01:23:51.122Z,76.33
2023-02-27T01:24:51.139Z,77.06
2023-02-27T01:25:51.170Z,77.17
2023-02-27T01:26:51.203Z,76.82
2023-02-27T01:27:51.222Z,76.40
2023-02-27T01:28:51.366Z,75.98
2023-02-27T01:29:51.310Z,75.57
2023-02-27T01:30:51.375Z,75.46
2023-02-27T01:31:51.475Z,75.05
2023-02-27T01:32:51.377Z,75.15
2023-02-27T01:33:51.422Z,75.05
2023-02-27T01:34:51.443Z,74.94
2023-02-27T01:35:51.483Z,74.35
2023-02-27T01:36:51.505Z,74.28
2023-02-27T01:37:51.533Z,74.28
2023-02-27T01:38:51.582Z,74.69
2023-02-27T01:39:51.617Z,74.91
2023-02-27T01:40:51.633Z,74.84
2023-02-27T01:41:51.662Z,74.73
2023-02-27T01:42:51.707Z,75.46
2023-02-27T01:43:51.752Z,75.57
2023-02-27T01:44:51.785Z,75.57
2023-02-27T01:45:51.832Z,76.09
2023-02-27T01:46:51.872Z,75.78
2023-02-27T01:47:51.903Z,75.88
2023-02-27T01:48:51.952Z,76.09
2023-02-27T01:49:52.002Z,75.88
2023-02-27T01:50:52.060Z,75.60
2023-02-27T01:51:52.081Z,76.54
2023-02-27T01:52:52.123Z,77.17
2023-02-27T01:53:52.167Z,76.82
2023-02-27T01:54:52.194Z,76.54
2023-02-27T01:55:52.228Z,77.24
2023-02-27T01:56:52.263Z,77.76
2023-02-27T01:57:52.286Z,78.18
2023-02-27T01:58:52.323Z,78.28
2023-02-27T01:59:52.374Z,78.25
2023-02-27T02:00:52.448Z,78.14
2023-02-27T02:01:52.424Z,77.83
2023-02-27T02:02:52.463Z,77.80
2023-02-27T02:03:52.507Z,77.48
2023-02-27T02:04:52.543Z,77.17
2023-02-27T02:05:52.594Z,76.75
2023-02-27T02:06:52.623Z,76.54
2023-02-27T02:07:52.665Z,76.68
2023-02-27T02:08:52.704Z,76.65
2023-02-27T02:09:52.736Z,76.47
2023-02-27T02:10:52.774Z,76.57
2023-02-27T02:11:52.809Z,76.68
2023-02-27T02:12:52.815Z,77.00
2023-02-27T02:13:52.834Z,77.31
2023-02-27T02:14:52.875Z,77.62
2023-02-27T02:15:52.896Z,77.62
2023-02-27T02:16:52.944Z,78.04
2023-02-27T02:17:52.964Z,78.04
2023-02-27T02:18:52.994Z,78.35
2023-02-27T02:19:53.023Z,77.94
2023-02-27T02:20:53.054Z,77.20
2023-02-27T02:21:53.087Z,77.00
2023-02-27T02:22:53.126Z,76.79
2023-02-27T02:23:53.185Z,76.06
2023-02-27T02:24:53.214Z,76.09
2023-02-27T02:25:53.235Z,75.88
2023-02-27T02:26:53.274Z,76.30
2023-02-27T02:27:53.287Z,76.61
2023-02-27T02:28:53.325Z,77.14
2023-02-27T02:29:53.398Z,77.55
2023-02-27T02:30:53.498Z,77.55
2023-02-27T02:31:53.655Z,77.45
2023-02-27T02:32:53.506Z,77.55
2023-02-27T02:33:53.540Z,77.76
2023-02-27T02:34:53.562Z,77.55
2023-02-27T02:35:53.588Z,77.34
2023-02-27T02:36:53.640Z,77.66
2023-02-27T02:37:53.671Z,77.24
2023-02-27T02:38:53.701Z,77.00
2023-02-27T02:39:53.737Z,76.61
2023-02-27T02:40:53.760Z,75.57
2023-02-27T02:41:53.808Z,75.92
2023-02-27T02:42:53.845Z,76.12
2023-02-27T02:43:53.880Z,76.44
2023-02-27T02:44:53.897Z,76.02
2023-02-27T02:45:53.964Z,76.26
2023-02-27T02:46:53.929Z,75.74
2023-02-27T02:47:53.968Z,75.98
2023-02-27T02:48:53.999Z,76.61
2023-02-27T02:49:54.060Z,76.61
2023-02-27T02:50:54.104Z,77.14
2023-02-27T02:51:54.139Z,77.34
2023-02-27T02:52:54.170Z,78.60
2023-02-27T02:53:54.211Z,79.09
2023-02-27T02:54:54.251Z,79.44
2023-02-27T02:55:54.290Z,79.93
2023-02-27T02:56:54.339Z,79.93
2023-02-27T02:57:54.368Z,79.79
2023-02-27T02:58:54.399Z,79.79
2023-02-27T02:59:54.429Z,79.99
2023-02-27T03:00:54.479Z,80.31
2023-02-27T03:01:54.520Z,79.68
2023-02-27T03:02:54.551Z,79.68
2023-02-27T03:03:54.550Z,79.44
2023-02-27T03:04:54.581Z,79.26
2023-02-27T03:05:54.630Z,79.47
2023-02-27T03:06:54.680Z,79.36
2023-02-27T03:07:54.792Z,79.47
2023-02-27T03:08:54.743Z,79.61
2023-02-27T03:09:54.791Z,79.93
2023-02-27T03:10:54.831Z,80.35
2023-02-27T03:11:54.881Z,79.89
2023-02-27T03:12:54.924Z,79.58
2023-02-27T03:13:54.945Z,79.47
2023-02-27T03:14:54.975Z,79.36
2023-02-27T03:15:55.030Z,79.02
2023-02-27T03:16:55.082Z,78.70
2023-02-27T03:17:55.112Z,77.97
2023-02-27T03:18:55.162Z,77.87
2023-02-27T03:19:55.169Z,78.08
2023-02-27T03:20:55.236Z,78.18
2023-02-27T03:21:55.239Z,77.97
2023-02-27T03:22:55.277Z,77.66
2023-02-27T03:23:55.317Z,78.11
2023-02-27T03:24:55.350Z,78.08
2023-02-27T03:25:57.228Z,77.76
2023-02-27T03:26:55.477Z,77.97
2023-02-27T03:27:55.506Z,77.34
2023-02-27T03:28:55.542Z,77.66
2023-02-27T03:29:55.568Z,77.14
2023-02-27T03:30:55.686Z,77.45
2023-02-27T03:31:55.673Z,77.45
2023-02-27T03:32:55.668Z,77.66
2023-02-27T03:33:55.708Z,78.01
2023-02-27T03:34:55.735Z,78.95
2023-02-27T03:35:55.764Z,79.12
2023-02-27T03:36:55.791Z,78.91
2023-02-27T03:37:55.819Z,78.28
2023-02-27T03:38:55.866Z,78.60
2023-02-27T03:39:55.896Z,78.49
2023-02-27T03:40:55.916Z,78.18
2023-02-27T03:41:55.937Z,77.76
2023-02-27T03:42:55.977Z,77.45
2023-02-27T03:43:56.009Z,77.14
2023-02-27T03:44:56.057Z,76.93
2023-02-27T03:45:56.109Z,77.28
2023-02-27T03:46:56.150Z,77.38
2023-02-27T03:47:56.166Z,77.59
2023-02-27T03:48:56.199Z,77.69
2023-02-27T03:49:56.220Z,77.80
2023-02-27T03:50:56.266Z,77.80
2023-02-27T03:51:56.300Z,77.59
2023-02-27T03:52:56.354Z,77.28
2023-02-27T03:53:56.366Z,77.28
2023-02-27T03:54:56.399Z,77.73
2023-02-27T03:55:56.432Z,78.01
2023-02-27T03:56:56.481Z,78.11
2023-02-27T03:57:56.508Z,78.01
2023-02-27T03:58:56.529Z,78.11
2023-02-27T03:59:56.568Z,77.59
2023-02-27T04:00:56.611Z,77.59
2023-02-27T04:01:56.754Z,76.96
2023-02-27T04:02:56.723Z,77.31
2023-02-27T04:03:56.756Z,77.31
2023-02-27T04:04:56.798Z,77.73
2023-02-27T04:05:56.849Z,77.52
2023-02-27T04:06:56.904Z,77.31
2023-02-27T04:07:56.969Z,77.10
2023-02-27T04:08:56.999Z,77.31
2023-02-27T04:09:57.039Z,77.52
2023-02-27T04:10:57.070Z,77.20
2023-02-27T04:11:57.104Z,77.24
2023-02-27T04:12:57.150Z,77.34
2023-02-27T04:13:57.180Z,77.66
2023-02-27T04:14:57.218Z,77.76
2023-02-27T04:15:57.280Z,77.97
2023-02-27T04:16:57.323Z,78.85
2023-02-27T04:17:57.352Z,79.86
2023-02-27T04:18:57.379Z,79.72
2023-02-27T04:19:57.438Z,79.23
2023-02-27T04:20:57.485Z,79.93
2023-02-27T04:21:57.498Z,80.13
2023-02-27T04:22:57.530Z,79.82
2023-02-27T04:23:57.565Z,79.82
2023-02-27T04:24:57.620Z,79.61
2023-02-27T04:25:57.697Z,79.26
2023-02-27T04:26:57.720Z,78.77
2023-02-27T04:27:57.743Z,78.95
2023-02-27T04:28:57.772Z,78.77
2023-02-27T04:29:57.812Z,78.95
2023-02-27T04:30:57.933Z,78.74
2023-02-27T04:31:58.098Z,78.67
2023-02-27T04:32:57.925Z,78.46
2023-02-27T04:33:57.965Z,77.73
2023-02-27T04:34:57.998Z,77.52
2023-02-27T04:35:58.045Z,77.00
2023-02-27T04:36:58.079Z,76.51
2023-02-27T04:37:58.099Z,77.34
2023-02-27T04:38:58.158Z,77.24
2023-02-27T04:39:58.208Z,77.66
2023-02-27T04:40:58.258Z,77.07
2023-02-27T04:41:58.258Z,76.75
2023-02-27T04:42:58.302Z,76.96
2023-02-27T04:43:58.380Z,77.28
2023-02-27T04:44:58.430Z,77.69
2023-02-27T04:45:58.542Z,77.73
2023-02-27T04:46:58.521Z,78.15
2023-02-27T04:47:58.580Z,77.94
2023-02-27T04:48:58.662Z,77.73
2023-02-27T04:49:58.645Z,77.73
2023-02-27T04:50:58.709Z,77.83
2023-02-27T04:51:58.780Z,77.94
2023-02-27T04:52:58.761Z,77.83
2023-02-27T04:53:58.781Z,78.05
2023-02-27T04:54:58.751Z,77.62
2023-02-27T04:55:58.841Z,78.05
2023-02-27T04:56:58.812Z,78.05
2023-02-27T04:57:58.883Z,78.46
2023-02-27T04:58:58.947Z,78.15
2023-02-27T04:59:58.923Z,76.82
2023-02-27T05:00:59.004Z,77.52
2023-02-27T05:01:59.272Z,78.08
2023-02-27T05:02:59.098Z,79.20
2023-02-27T05:04:00.595Z,79.72
2023-02-27T05:04:59.110Z,79.90
2023-02-27T05:05:59.172Z,79.90
2023-02-27T05:06:59.171Z,80.31
2023-02-27T05:07:59.204Z,80.07
2023-02-27T05:08:59.249Z,79.86
2023-02-27T05:09:59.290Z,79.54
2023-02-27T05:10:59.370Z,79.54
2023-02-27T05:11:59.464Z,79.33
2023-02-27T05:12:59.467Z,78.91
2023-02-27T05:13:59.502Z,78.39
2023-02-27T05:14:59.542Z,78.60
2023-02-27T05:15:59.653Z,79.13
2023-02-27T05:16:59.592Z,79.02
2023-02-27T05:17:59.609Z,78.81
2023-02-27T05:18:59.561Z,78.74
2023-02-27T05:19:59.593Z,78.74
2023-02-27T05:20:59.612Z,79.16
2023-02-27T05:21:59.643Z,79.27
2023-02-27T05:22:59.691Z,79.27
2023-02-27T05:23:59.726Z,78.95
2023-02-27T05:24:59.742Z,79.16
2023-02-27T05:25:59.778Z,79.16
2023-02-27T05:26:59.801Z,78.95
2023-02-27T05:27:59.833Z,78.95
2023-02-27T05:28:59.911Z,79.05
2023-02-27T05:29:59.871Z,78.95
2023-02-27T05:30:59.921Z,78.95
2023-02-27T05:32:00.046Z,78.85
2023-02-27T05:33:00.007Z,78.78
2023-02-27T05:33:59.962Z,78.85
2023-02-27T05:35:00.014Z,79.20
2023-02-27T05:36:00.113Z,79.27
2023-02-27T05:37:00.138Z,79.30
2023-02-27T05:38:00.210Z,79.27
2023-02-27T05:39:00.259Z,79.27
2023-02-27T05:40:00.331Z,78.46
2023-02-27T05:41:00.313Z,78.57
2023-02-27T05:42:00.371Z,78.46
2023-02-27T05:43:00.439Z,78.67
2023-02-27T05:44:00.500Z,78.67
2023-02-27T05:45:00.609Z,78.67
2023-02-27T05:46:00.602Z,78.57
2023-02-27T05:47:00.609Z,78.88
2023-02-27T05:48:00.641Z,77.94
2023-02-27T05:49:00.642Z,77.45
2023-02-27T05:50:00.649Z,77.24
2023-02-27T05:51:00.662Z,77.66
2023-02-27T05:52:00.694Z,77.87
2023-02-27T05:53:00.696Z,78.08
2023-02-27T05:54:00.699Z,78.19
2023-02-27T05:55:00.709Z,77.76
2023-02-27T05:56:00.730Z,77.45
2023-02-27T05:57:00.734Z,77.34
2023-02-27T05:58:00.751Z,77.66
2023-02-27T05:59:00.768Z,77.97
2023-02-27T06:00:00.793Z,78.08
2023-02-27T06:01:00.807Z,77.80
2023-02-27T06:02:00.840Z,78.29
2023-02-27T06:03:00.853Z,79.13
2023-02-27T06:04:00.854Z,80.14
2023-02-27T06:05:00.835Z,79.41
2023-02-27T06:06:00.905Z,79.51
2023-02-27T06:07:00.965Z,79.79
2023-02-27T06:08:01.009Z,79.58
2023-02-27T06:09:01.099Z,79.58
2023-02-27T06:10:01.174Z,79.27
2023-02-27T06:11:01.127Z,79.05
2023-02-27T06:12:01.197Z,79.05
2023-02-27T06:13:01.197Z,78.64
2023-02-27T06:14:01.206Z,78.81
2023-02-27T06:15:01.206Z,78.32
2023-02-27T06:16:01.245Z,78.01
2023-02-27T06:17:01.319Z,78.32
2023-02-27T06:18:01.246Z,79.16
2023-02-27T06:19:02.584Z,79.58
2023-02-27T06:20:01.317Z,80.00
2023-02-27T06:21:01.299Z,80.56
2023-02-27T06:22:01.331Z,80.87
2023-02-27T06:23:01.350Z,81.36
2023-02-27T06:24:01.404Z,81.19
2023-02-27T06:25:01.418Z,81.40
2023-02-27T06:26:01.420Z,81.50
2023-02-27T06:27:01.419Z,81.46
2023-02-27T06:28:01.426Z,80.80
2023-02-27T06:29:01.495Z,80.55
2023-02-27T06:30:01.537Z,79.72
2023-02-27T06:31:01.610Z,78.77
2023-02-27T06:32:01.635Z,78.25
2023-02-27T06:33:01.648Z,78.46
2023-02-27T06:34:01.684Z,78.67
2023-02-27T06:35:01.683Z,78.77
2023-02-27T06:36:01.731Z,79.16
2023-02-27T06:37:04.146Z,78.85
2023-02-27T06:38:01.825Z,77.80
2023-02-27T06:39:01.874Z,77.48
2023-02-27T06:40:01.949Z,77.03
2023-02-27T06:41:01.973Z,77.14
2023-02-27T06:42:01.983Z,76.37
2023-02-27T06:43:02.053Z,76.09
2023-02-27T06:44:02.123Z,75.71
2023-02-27T06:45:02.295Z,75.12
2023-02-27T06:46:02.243Z,74.04
2023-02-27T06:47:02.223Z,73.69
2023-02-27T06:48:02.213Z,73.11
2023-02-27T06:49:02.296Z,71.97
2023-02-27T06:50:02.285Z,71.31
2023-02-27T06:51:02.342Z,70.85
2023-02-27T06:52:02.409Z,71.61
2023-02-27T06:53:02.385Z,72.06
2023-02-27T06:54:02.445Z,72.62
2023-02-27T06:55:02.515Z,72.96
2023-02-27T06:56:02.562Z,73.41
2023-02-27T06:57:02.557Z,73.41
2023-02-27T06:58:02.623Z,73.49
2023-02-27T06:59:02.605Z,73.32
2023-02-27T07:00:02.673Z,73.56
2023-02-27T07:01:02.752Z,72.45
2023-02-27T07:02:02.765Z,71.76
2023-02-27T07:03:02.812Z,70.79
2023-02-27T07:04:02.825Z,69.79
2023-02-27T07:05:08.264Z,69.35
2023-02-27T07:06:02.918Z,68.80
2023-02-27T07:07:33.869Z,67.73
2023-02-27T07:08:02.978Z,67.60
2023-02-27T07:09:07.007Z,66.84
2023-02-27T07:10:03.021Z,66.60
2023-02-27T07:11:03.047Z,65.12
2023-02-27T07:12:03.067Z,64.09
2023-02-27T07:13:03.087Z,62.77
2023-02-27T07:14:03.106Z,63.16
2023-02-27T07:15:03.169Z,62.65
2023-02-27T07:16:03.316Z,62.44
2023-02-27T07:17:03.301Z,62.75
2023-02-27T07:18:03.269Z,62.85
2023-02-27T07:19:03.289Z,62.62
2023-02-27T07:20:03.343Z,61.99
2023-02-27T07:21:03.378Z,62.07
2023-02-27T07:22:03.390Z,61.66
2023-02-27T07:23:03.406Z,60.49
2023-02-27T07:24:03.418Z,60.60
2023-02-27T07:25:03.451Z,59.46
2023-02-27T07:26:03.496Z,59.88
2023-02-27T07:27:03.506Z,60.26
2023-02-27T07:28:03.528Z,60.13
2023-02-27T07:29:03.543Z,59.51
2023-02-27T07:30:03.561Z,58.55
2023-02-27T07:31:03.668Z,58.17
2023-02-27T07:32:03.708Z,58.69
2023-02-27T07:33:03.674Z,58.65
2023-02-27T07:34:03.687Z,57.91
2023-02-27T07:35:03.722Z,58.40
2023-02-27T07:36:03.734Z,57.37
2023-02-27T07:37:03.783Z,56.82
2023-02-27T07:38:03.832Z,56.10
2023-02-27T07:39:03.848Z,56.31
2023-02-27T07:40:03.915Z,56.00
2023-02-27T07:41:03.981Z,56.49
2023-02-27T07:42:04.049Z,56.05
2023-02-27T07:43:04.114Z,55.49
2023-02-27T07:44:04.167Z,54.74
2023-02-27T07:45:04.220Z,53.72
2023-02-27T07:46:04.321Z,53.61
2023-02-27T07:47:04.318Z,53.74
2023-02-27T07:48:04.375Z,53.94
2023-02-27T07:49:04.425Z,54.23
2023-02-27T07:50:04.783Z,54.00
2023-02-27T07:51:04.547Z,52.33
2023-02-27T07:52:04.596Z,53.84
2023-02-27T07:53:04.648Z,55.26
2023-02-27T07:54:04.707Z,57.17
2023-02-27T07:55:04.774Z,57.83
2023-02-27T07:56:04.819Z,57.29
2023-02-27T07:57:04.868Z,57.24
2023-02-27T07:58:04.900Z,55.66
2023-02-27T07:59:04.940Z,55.02
2023-02-27T08:00:05.007Z,54.87
2023-02-27T08:01:05.068Z,53.74
2023-02-27T08:02:05.118Z,53.92
2023-02-27T08:03:05.149Z,53.28
2023-02-27T08:04:05.191Z,52.15
2023-02-27T08:05:05.350Z,52.76
2023-02-27T08:06:05.263Z,51.74
2023-02-27T08:07:05.313Z,52.07
2023-02-27T08:08:05.363Z,52.66
2023-02-27T08:09:05.414Z,52.44
2023-02-27T08:10:05.472Z,52.02
2023-02-27T08:11:05.497Z,51.84
2023-02-27T08:12:05.528Z,52.25
2023-02-27T08:13:05.593Z,52.40
2023-02-27T08:14:05.688Z,53.43
2023-02-27T08:15:05.658Z,53.94
2023-02-27T08:16:05.771Z,53.36
2023-02-27T08:17:05.705Z,51.59
2023-02-27T08:18:05.748Z,50.99
2023-02-27T08:19:05.797Z,51.61
2023-02-27T08:20:05.841Z,52.39
2023-02-27T08:21:05.887Z,51.51
2023-02-27T08:22:05.940Z,50.31
2023-02-27T08:23:05.954Z,50.28
2023-02-27T08:24:05.942Z,51.18
2023-02-27T08:25:05.972Z,50.64
2023-02-27T08:26:06.053Z,50.36
2023-02-27T08:27:06.126Z,51.31
2023-02-27T08:28:06.084Z,51.28
2023-02-27T08:29:06.083Z,50.29
2023-02-27T08:30:06.084Z,49.47
2023-02-27T08:31:06.221Z,49.52
2023-02-27T08:32:06.275Z,48.58
2023-02-27T08:33:06.275Z,48.25
2023-02-27T08:34:10.144Z,48.44
2023-02-27T08:35:06.303Z,49.95
2023-02-27T08:36:06.510Z,52.00
2023-02-27T08:37:06.426Z,51.28
2023-02-27T08:38:06.464Z,51.12
2023-02-27T08:39:06.553Z,52.48
2023-02-27T08:40:06.544Z,53.05
2023-02-27T08:41:06.584Z,52.41
2023-02-27T08:42:06.616Z,51.95
2023-02-27T08:43:06.688Z,50.46
2023-02-27T08:44:06.760Z,51.64
2023-02-27T08:45:06.785Z,52.38
2023-02-27T08:46:06.853Z,52.48
2023-02-27T08:47:06.841Z,52.95
2023-02-27T08:48:06.910Z,51.93
2023-02-27T08:49:06.910Z,50.36
2023-02-27T08:50:06.909Z,52.12
2023-02-27T08:51:06.966Z,52.22
2023-02-27T08:52:06.997Z,54.13
2023-02-27T08:53:07.039Z,55.00
2023-02-27T08:54:07.067Z,54.33
2023-02-27T08:55:07.139Z,53.33
2023-02-27T08:56:07.113Z,51.05
2023-02-27T08:57:07.127Z,51.56
2023-02-27T08:58:07.146Z,53.41
2023-02-27T08:59:07.172Z,52.56
2023-02-27T09:00:07.254Z,52.76
2023-02-27T09:01:07.232Z,51.82
2023-02-27T09:02:07.252Z,52.04
2023-02-27T09:03:07.305Z,52.46
2023-02-27T09:04:07.341Z,52.41
2023-02-27T09:05:07.357Z,51.23
2023-02-27T09:06:07.397Z,50.10
2023-02-27T09:07:07.449Z,51.21
2023-02-27T09:08:07.493Z,49.30
2023-02-27T09:09:07.537Z,48.81
2023-02-27T09:10:07.618Z,48.99
2023-02-27T09:11:07.592Z,48.05
2023-02-27T09:12:07.628Z,48.89
2023-02-27T09:13:07.679Z,47.60
2023-02-27T09:14:07.753Z,47.67
2023-02-27T09:15:07.729Z,47.27
2023-02-27T09:16:07.862Z,46.45
2023-02-27T09:17:07.847Z,46.30
2023-02-27T09:18:07.881Z,45.92
2023-02-27T09:19:07.952Z,47.19
2023-02-27T09:20:08.003Z,47.19
2023-02-27T09:21:08.053Z,47.11
2023-02-27T09:22:08.093Z,47.90
2023-02-27T09:23:08.150Z,47.61
2023-02-27T09:24:19.304Z,49.22
2023-02-27T09:25:08.237Z,48.22
2023-02-27T09:26:08.229Z,45.45
2023-02-27T09:27:08.233Z,46.61
2023-02-27T09:28:08.250Z,46.30
2023-02-27T09:29:08.249Z,45.77
2023-02-27T09:30:08.248Z,45.22
2023-02-27T09:31:08.286Z,46.96
2023-02-27T09:32:08.406Z,46.34
2023-02-27T09:33:08.358Z,46.55
2023-02-27T09:34:08.276Z,45.36
2023-02-27T09:35:08.288Z,45.49
2023-02-27T09:36:08.358Z,45.34
2023-02-27T09:37:08.312Z,44.71
2023-02-27T09:38:08.307Z,44.83
2023-02-27T09:39:08.303Z,44.43
2023-02-27T09:40:08.310Z,45.20
2023-02-27T09:41:08.331Z,45.49
2023-02-27T09:42:08.364Z,45.14
2023-02-27T09:43:08.389Z,45.47
2023-02-27T09:44:08.394Z,45.14
2023-02-27T09:45:08.399Z,45.32
2023-02-27T09:46:08.436Z,44.93
2023-02-27T09:47:08.465Z,45.83
2023-02-27T09:48:08.472Z,44.06
2023-02-27T09:49:08.477Z,44.26
2023-02-27T09:50:08.487Z,44.16
2023-02-27T09:51:08.532Z,43.53
2023-02-27T09:52:08.529Z,43.20
2023-02-27T09:53:08.530Z,43.69
2023-02-27T09:54:08.558Z,44.53
2023-02-27T09:55:08.559Z,44.75
2023-02-27T09:56:08.601Z,45.26
2023-02-27T09:57:08.616Z,44.61
2023-02-27T09:58:08.630Z,44.89
2023-02-27T09:59:08.640Z,43.77
2023-02-27T10:00:08.658Z,44.97
2023-02-27T10:01:08.693Z,44.32
2023-02-27T10:02:08.745Z,43.12
2023-02-27T10:03:08.799Z,43.63
2023-02-27T10:04:10.992Z,44.04
2023-02-27T10:05:08.845Z,44.18
2023-02-27T10:06:08.842Z,45.07
2023-02-27T10:07:08.869Z,45.15
2023-02-27T10:08:08.879Z,43.18
2023-02-27T10:09:08.890Z,43.47
2023-02-27T10:10:08.886Z,42.25
2023-02-27T10:11:08.900Z,43.79
2023-02-27T10:12:08.908Z,45.30
2023-02-27T10:13:08.921Z,45.34
2023-02-27T10:14:08.941Z,45.77
2023-02-27T10:15:08.948Z,45.67
2023-02-27T10:16:08.949Z,46.53
2023-02-27T10:17:09.069Z,46.81
2023-02-27T10:18:23.907Z,46.38
2023-02-27T10:19:09.012Z,45.75
2023-02-27T10:20:09.036Z,45.48
2023-02-27T10:21:09.043Z,44.45
2023-02-27T10:22:09.063Z,45.53
2023-02-27T10:23:09.095Z,45.63
2023-02-27T10:24:09.096Z,45.12
2023-02-27T10:25:24.809Z,45.47
2023-02-27T10:26:09.126Z,46.18
2023-02-27T10:27:09.187Z,45.83
2023-02-27T10:28:09.212Z,44.54
2023-02-27T10:29:09.256Z,44.04
2023-02-27T10:30:11.186Z,43.81
2023-02-27T10:31:09.335Z,44.16
2023-02-27T10:32:09.342Z,44.57
2023-02-27T10:33:09.319Z,43.85
2023-02-27T10:34:09.385Z,43.10
2023-02-27T10:35:09.460Z,43.10
2023-02-27T10:36:09.482Z,42.39
2023-02-27T10:37:09.473Z,43.57
2023-02-27T10:38:09.521Z,43.65
2023-02-27T10:39:09.572Z,43.84
2023-02-27T10:40:09.622Z,44.57
2023-02-27T10:41:09.573Z,44.24
2023-02-27T10:42:09.623Z,44.59
2023-02-27T10:43:09.672Z,43.16
2023-02-27T10:44:09.721Z,43.85
2023-02-27T10:45:09.793Z,42.02
2023-02-27T10:46:09.872Z,43.41
2023-02-27T10:47:09.883Z,43.71
2023-02-27T10:48:09.926Z,44.43
2023-02-27T10:49:09.931Z,42.96
2023-02-27T10:50:09.983Z,43.26
2023-02-27T10:51:09.995Z,42.47
2023-02-27T10:52:10.043Z,42.83
2023-02-27T10:54:36.039Z,45.00
2023-02-27T10:55:36.091Z,45.20
2023-02-27T10:58:02.071Z,42.45
2023-02-27T11:00:28.118Z,41.75
2023-02-27T11:01:28.579Z,42.47
2023-02-27T11:02:28.121Z,43.29
2023-02-27T11:03:28.184Z,43.51
2023-02-27T11:04:28.275Z,43.43
2023-02-27T11:05:28.270Z,43.90
2023-02-27T11:06:28.268Z,44.43
2023-02-27T11:07:28.321Z,45.04
2023-02-27T11:08:28.336Z,44.98
2023-02-27T11:09:28.374Z,43.12
2023-02-27T11:10:28.385Z,43.53
2023-02-27T11:11:28.740Z,43.90
2023-02-27T11:12:28.415Z,44.88
2023-02-27T11:13:28.442Z,45.43
2023-02-27T11:14:28.451Z,47.75
2023-02-27T11:15:28.560Z,48.80
2023-02-27T11:16:28.580Z,48.39
2023-02-27T11:17:28.599Z,48.27
2023-02-27T11:18:28.674Z,48.25
2023-02-27T11:19:28.557Z,45.26
2023-02-27T11:20:28.618Z,46.45
2023-02-27T11:21:28.951Z,47.25
2023-02-27T11:22:28.610Z,47.11
2023-02-27T11:23:28.615Z,45.92
2023-02-27T11:24:28.644Z,44.79
2023-02-27T11:25:28.646Z,44.65
2023-02-27T11:26:28.793Z,45.49
2023-02-27T11:27:28.773Z,45.04
2023-02-27T11:28:28.744Z,46.29
2023-02-27T11:29:28.787Z,46.53
2023-02-27T11:30:28.825Z,47.17
2023-02-27T11:31:29.264Z,47.52
2023-02-27T11:32:28.876Z,48.26
2023-02-27T11:33:28.905Z,47.66
2023-02-27T11:34:28.989Z,47.60
2023-02-27T11:35:29.058Z,45.63
2023-02-27T11:36:29.028Z,45.77
2023-02-27T11:37:29.163Z,44.00
2023-02-27T11:38:29.127Z,43.35
2023-02-27T11:39:29.176Z,44.00
2023-02-27T11:40:29.220Z,45.74
2023-02-27T11:41:29.606Z,47.96
2023-02-27T11:42:29.253Z,49.41
2023-02-27T11:43:29.259Z,49.64
2023-02-27T11:44:49.774Z,49.82
2023-02-27T11:46:10.199Z,49.80
2023-02-27T11:46:46.471Z,49.49
2023-02-27T11:47:29.522Z,49.67
2023-02-27T11:48:29.438Z,47.93
2023-02-27T11:49:29.440Z,47.48
2023-02-27T11:50:29.542Z,47.25
2023-02-27T11:51:29.721Z,48.60
2023-02-27T11:52:29.594Z,49.90
2023-02-27T11:53:29.655Z,50.31
2023-02-27T11:54:29.693Z,50.77
2023-02-27T11:55:29.737Z,50.90
2023-02-27T11:56:29.782Z,51.72
2023-02-27T11:57:29.841Z,51.43
2023-02-27T11:58:29.854Z,51.53
2023-02-27T11:59:29.871Z,51.10
2023-02-27T12:00:29.865Z,51.12
2023-02-27T12:01:29.989Z,51.95
2023-02-27T12:02:30.036Z,51.84
2023-02-27T12:03:30.034Z,51.10
2023-02-27T12:04:30.076Z,50.01
2023-02-27T12:05:30.070Z,49.80
2023-02-27T12:06:30.085Z,49.75
2023-02-27T12:07:30.153Z,48.73
2023-02-27T12:08:30.147Z,48.81
2023-02-27T12:09:30.200Z,48.55
2023-02-27T12:10:30.231Z,48.57
2023-02-27T12:11:30.552Z,50.05
2023-02-27T12:12:30.268Z,50.07
2023-02-27T12:13:30.472Z,50.69
2023-02-27T12:14:30.329Z,50.59
2023-02-27T12:15:30.334Z,51.33
2023-02-27T12:16:32.953Z,51.02
2023-02-27T12:17:30.336Z,50.71
2023-02-27T12:18:30.330Z,50.43
2023-02-27T12:19:30.388Z,50.68
2023-02-27T12:20:30.414Z,52.64
2023-02-27T12:21:30.451Z,51.99
2023-02-27T12:22:30.492Z,52.61
2023-02-27T12:23:30.501Z,51.25
2023-02-27T12:24:30.511Z,50.07
2023-02-27T12:25:30.596Z,49.16
2023-02-27T12:26:30.873Z,47.25
2023-02-27T12:27:30.592Z,46.26
2023-02-27T12:28:30.637Z,45.32
2023-02-27T12:29:30.696Z,44.31
2023-02-27T12:30:30.733Z,43.84
2023-02-27T12:31:31.004Z,44.90
2023-02-27T12:32:30.837Z,45.65
2023-02-27T12:33:30.801Z,46.42
2023-02-27T12:34:30.864Z,46.97
2023-02-27T12:35:30.890Z,48.59
2023-02-27T12:36:30.872Z,47.59
2023-02-27T12:37:30.933Z,47.89
2023-02-27T12:38:30.944Z,49.46
2023-02-27T12:39:30.993Z,49.69
2023-02-27T12:40:30.984Z,50.20
2023-02-27T12:41:30.992Z,49.38
2023-02-27T12:42:31.012Z,49.81
2023-02-27T12:43:31.091Z,50.78
2023-02-27T12:44:31.130Z,51.12
2023-02-27T12:45:31.203Z,51.65
2023-02-27T12:46:31.191Z,52.17
2023-02-27T12:47:31.251Z,52.58
2023-02-27T12:48:31.274Z,51.94
2023-02-27T12:49:31.322Z,51.84
2023-02-27T12:50:31.383Z,51.53
2023-02-27T12:51:31.432Z,51.50
2023-02-27T12:52:31.464Z,51.81
2023-02-27T12:53:31.502Z,51.35
2023-02-27T12:54:31.515Z,50.92
2023-02-27T12:55:31.613Z,50.30
2023-02-27T12:56:31.552Z,48.97
2023-02-27T12:57:31.615Z,48.92